sensor_id;sensor_type;location;lat;lon;timestamp;P1;durP1;ratioP1;P2;durP2;ratioP2
13090;SDS011;6611;52.604;13.438;2022-07-06T00:00:03;1.20;;;1.00;;
13090;SDS011;6611;52.604;13.438;2022-07-06T00:02:35;1.13;;;0.80;;
13090;SDS011;6611;52.604;13.438;2022-07-06T00:05:07;1.30;;;0.67;;
13090;SDS011;6611;52.604;13.438;2022-07-06T00:07:41;3.27;;;0.90;;
13090;SDS011;6611;52.604;13.438;2022-07-06T00:10:13;2.53;;;0.90;;
13090;SDS011;6611;52.604;13.438;2022-07-06T00:12:45;2.43;;;0.70;;
13090;SDS011;6611;52.604;13.438;2022-07-06T00:15:17;2.47;;;0.90;;
13090;SDS011;6611;52.604;13.438;2022-07-06T00:17:49;2.37;;;0.80;;
13090;SDS011;6611;52.604;13.438;2022-07-06T00:20:21;1.77;;;1.10;;
13090;SDS011;6611;52.604;13.438;2022-07-06T00:22:55;1.30;;;0.80;;
13090;SDS011;6611;52.604;13.438;2022-07-06T00:25:27;1.67;;;0.80;;
13090;SDS011;6611;52.604;13.438;2022-07-06T00:27:59;1.70;;;0.87;;
13090;SDS011;6611;52.604;13.438;2022-07-06T00:30:31;3.17;;;0.80;;
13090;SDS011;6611;52.604;13.438;2022-07-06T00:33:03;4.73;;;1.17;;
13090;SDS011;6611;52.604;13.438;2022-07-06T00:35:35;2.27;;;0.97;;
13090;SDS011;6611;52.604;13.438;2022-07-06T00:38:09;4.03;;;1.10;;
13090;SDS011;6611;52.604;13.438;2022-07-06T00:40:41;4.13;;;1.20;;
13090;SDS011;6611;52.604;13.438;2022-07-06T00:43:13;2.27;;;1.07;;
13090;SDS011;6611;52.604;13.438;2022-07-06T00:45:46;1.27;;;0.77;;
13090;SDS011;6611;52.604;13.438;2022-07-06T00:48:18;1.20;;;0.80;;
13090;SDS011;6611;52.604;13.438;2022-07-06T00:50:50;1.33;;;0.80;;
13090;SDS011;6611;52.604;13.438;2022-07-06T00:53:24;2.13;;;1.10;;
13090;SDS011;6611;52.604;13.438;2022-07-06T00:55:56;3.07;;;1.10;;
13090;SDS011;6611;52.604;13.438;2022-07-06T00:58:28;1.80;;;1.07;;
13090;SDS011;6611;52.604;13.438;2022-07-06T01:01:00;1.30;;;0.90;;
13090;SDS011;6611;52.604;13.438;2022-07-06T01:03:32;1.80;;;1.10;;
13090;SDS011;6611;52.604;13.438;2022-07-06T01:06:05;1.30;;;0.80;;
13090;SDS011;6611;52.604;13.438;2022-07-06T01:08:38;1.80;;;0.87;;
13090;SDS011;6611;52.604;13.438;2022-07-06T01:11:11;3.33;;;1.43;;
13090;SDS011;6611;52.604;13.438;2022-07-06T01:13:43;1.23;;;1.00;;
13090;SDS011;6611;52.604;13.438;2022-07-06T01:16:16;2.90;;;1.17;;
13090;SDS011;6611;52.604;13.438;2022-07-06T01:18:49;1.40;;;0.70;;
13090;SDS011;6611;52.604;13.438;2022-07-06T01:21:22;0.97;;;0.63;;
13090;SDS011;6611;52.604;13.438;2022-07-06T01:23:54;1.50;;;0.73;;
13090;SDS011;6611;52.604;13.438;2022-07-06T01:26:27;1.70;;;0.90;;
13090;SDS011;6611;52.604;13.438;2022-07-06T01:28:59;1.77;;;0.93;;
13090;SDS011;6611;52.604;13.438;2022-07-06T01:31:31;4.30;;;1.27;;
13090;SDS011;6611;52.604;13.438;2022-07-06T01:34:03;2.93;;;0.90;;
13090;SDS011;6611;52.604;13.438;2022-07-06T01:36:37;3.57;;;0.90;;
13090;SDS011;6611;52.604;13.438;2022-07-06T01:39:09;1.83;;;1.00;;
13090;SDS011;6611;52.604;13.438;2022-07-06T01:41:42;2.40;;;1.00;;
13090;SDS011;6611;52.604;13.438;2022-07-06T01:44:14;3.43;;;1.00;;
13090;SDS011;6611;52.604;13.438;2022-07-06T01:46:46;1.10;;;1.00;;
13090;SDS011;6611;52.604;13.438;2022-07-06T01:49:18;1.03;;;0.90;;
13090;SDS011;6611;52.604;13.438;2022-07-06T01:51:52;2.23;;;1.00;;
13090;SDS011;6611;52.604;13.438;2022-07-06T01:54:24;1.13;;;0.80;;
13090;SDS011;6611;52.604;13.438;2022-07-06T01:56:56;2.90;;;1.00;;
13090;SDS011;6611;52.604;13.438;2022-07-06T01:59:28;1.10;;;0.70;;
13090;SDS011;6611;52.604;13.438;2022-07-06T02:02:00;1.10;;;0.87;;
13090;SDS011;6611;52.604;13.438;2022-07-06T02:04:33;1.00;;;0.80;;
13090;SDS011;6611;52.604;13.438;2022-07-06T02:07:06;2.10;;;0.93;;
13090;SDS011;6611;52.604;13.438;2022-07-06T02:09:38;0.93;;;0.80;;
13090;SDS011;6611;52.604;13.438;2022-07-06T02:12:10;1.20;;;0.83;;
13090;SDS011;6611;52.604;13.438;2022-07-06T02:14:42;1.23;;;0.87;;
13090;SDS011;6611;52.604;13.438;2022-07-06T02:17:14;1.73;;;0.80;;
13090;SDS011;6611;52.604;13.438;2022-07-06T02:19:46;1.33;;;0.80;;
13090;SDS011;6611;52.604;13.438;2022-07-06T02:22:20;1.93;;;1.00;;
13090;SDS011;6611;52.604;13.438;2022-07-06T02:24:52;1.50;;;0.97;;
13090;SDS011;6611;52.604;13.438;2022-07-06T02:27:24;5.47;;;1.10;;
13090;SDS011;6611;52.604;13.438;2022-07-06T02:29:56;1.17;;;1.00;;
13090;SDS011;6611;52.604;13.438;2022-07-06T02:32:28;1.30;;;0.90;;
13090;SDS011;6611;52.604;13.438;2022-07-06T02:35:01;1.70;;;0.93;;
13090;SDS011;6611;52.604;13.438;2022-07-06T02:37:34;1.77;;;1.00;;
13090;SDS011;6611;52.604;13.438;2022-07-06T02:40:07;1.37;;;1.13;;
13090;SDS011;6611;52.604;13.438;2022-07-06T02:42:39;2.33;;;1.20;;
13090;SDS011;6611;52.604;13.438;2022-07-06T02:45:12;1.20;;;1.10;;
13090;SDS011;6611;52.604;13.438;2022-07-06T02:47:44;2.80;;;1.20;;
13090;SDS011;6611;52.604;13.438;2022-07-06T02:50:16;1.03;;;0.80;;
13090;SDS011;6611;52.604;13.438;2022-07-06T02:52:50;4.80;;;1.60;;
13090;SDS011;6611;52.604;13.438;2022-07-06T02:55:22;2.30;;;1.20;;
13090;SDS011;6611;52.604;13.438;2022-07-06T02:57:54;3.87;;;1.30;;
13090;SDS011;6611;52.604;13.438;2022-07-06T03:00:26;4.00;;;1.30;;
13090;SDS011;6611;52.604;13.438;2022-07-06T03:02:58;3.03;;;1.30;;
13090;SDS011;6611;52.604;13.438;2022-07-06T03:05:31;7.13;;;1.53;;
13090;SDS011;6611;52.604;13.438;2022-07-06T03:08:04;3.10;;;1.20;;
13090;SDS011;6611;52.604;13.438;2022-07-06T03:10:36;1.60;;;1.10;;
13090;SDS011;6611;52.604;13.438;2022-07-06T03:13:08;2.40;;;1.40;;
13090;SDS011;6611;52.604;13.438;2022-07-06T03:15:40;4.13;;;1.50;;
13090;SDS011;6611;52.604;13.438;2022-07-06T03:18:13;2.77;;;1.67;;
13090;SDS011;6611;52.604;13.438;2022-07-06T03:20:45;2.93;;;1.37;;
13090;SDS011;6611;52.604;13.438;2022-07-06T03:23:18;2.83;;;1.40;;
13090;SDS011;6611;52.604;13.438;2022-07-06T03:25:50;3.17;;;1.33;;
13090;SDS011;6611;52.604;13.438;2022-07-06T03:28:22;1.77;;;1.23;;
13090;SDS011;6611;52.604;13.438;2022-07-06T03:30:55;2.83;;;1.60;;
13090;SDS011;6611;52.604;13.438;2022-07-06T03:33:27;2.53;;;1.60;;
13090;SDS011;6611;52.604;13.438;2022-07-06T03:35:59;2.60;;;1.50;;
13090;SDS011;6611;52.604;13.438;2022-07-06T03:38:32;2.43;;;1.50;;
13090;SDS011;6611;52.604;13.438;2022-07-06T03:41:04;2.07;;;1.23;;
13090;SDS011;6611;52.604;13.438;2022-07-06T03:43:36;1.77;;;1.40;;
13090;SDS011;6611;52.604;13.438;2022-07-06T03:46:09;1.77;;;1.30;;
13090;SDS011;6611;52.604;13.438;2022-07-06T03:48:41;3.13;;;1.27;;
13090;SDS011;6611;52.604;13.438;2022-07-06T03:51:13;3.80;;;1.37;;
13090;SDS011;6611;52.604;13.438;2022-07-06T03:53:46;1.73;;;1.30;;
13090;SDS011;6611;52.604;13.438;2022-07-06T03:56:19;2.70;;;1.20;;
13090;SDS011;6611;52.604;13.438;2022-07-06T03:59:02;2.60;;;1.30;;
13090;SDS011;6611;52.604;13.438;2022-07-06T04:01:34;1.80;;;1.20;;
13090;SDS011;6611;52.604;13.438;2022-07-06T04:04:06;3.13;;;1.40;;
13090;SDS011;6611;52.604;13.438;2022-07-06T04:06:39;2.43;;;1.33;;
13090;SDS011;6611;52.604;13.438;2022-07-06T04:09:12;2.00;;;1.13;;
13090;SDS011;6611;52.604;13.438;2022-07-06T04:11:44;2.07;;;1.20;;
13090;SDS011;6611;52.604;13.438;2022-07-06T04:14:16;2.13;;;1.30;;
13090;SDS011;6611;52.604;13.438;2022-07-06T04:16:48;1.50;;;1.33;;
13090;SDS011;6611;52.604;13.438;2022-07-06T04:19:20;2.67;;;1.50;;
13090;SDS011;6611;52.604;13.438;2022-07-06T04:21:52;3.10;;;1.47;;
13090;SDS011;6611;52.604;13.438;2022-07-06T04:24:26;4.60;;;1.37;;
13090;SDS011;6611;52.604;13.438;2022-07-06T04:26:58;1.90;;;1.40;;
13090;SDS011;6611;52.604;13.438;2022-07-06T04:29:30;2.73;;;1.10;;
13090;SDS011;6611;52.604;13.438;2022-07-06T04:32:02;2.10;;;1.10;;
13090;SDS011;6611;52.604;13.438;2022-07-06T04:34:34;2.53;;;1.17;;
13090;SDS011;6611;52.604;13.438;2022-07-06T04:37:07;2.43;;;1.40;;
13090;SDS011;6611;52.604;13.438;2022-07-06T04:39:40;3.70;;;1.47;;
13090;SDS011;6611;52.604;13.438;2022-07-06T04:42:12;2.93;;;1.40;;
13090;SDS011;6611;52.604;13.438;2022-07-06T04:44:45;2.40;;;1.23;;
13090;SDS011;6611;52.604;13.438;2022-07-06T04:47:17;1.93;;;1.40;;
13090;SDS011;6611;52.604;13.438;2022-07-06T04:49:49;4.27;;;1.33;;
13090;SDS011;6611;52.604;13.438;2022-07-06T04:52:21;3.10;;;1.47;;
13090;SDS011;6611;52.604;13.438;2022-07-06T04:54:55;2.57;;;1.27;;
13090;SDS011;6611;52.604;13.438;2022-07-06T04:57:27;5.43;;;1.20;;
13090;SDS011;6611;52.604;13.438;2022-07-06T04:59:59;2.40;;;1.30;;
13090;SDS011;6611;52.604;13.438;2022-07-06T05:02:31;2.20;;;1.17;;
13090;SDS011;6611;52.604;13.438;2022-07-06T05:05:04;3.13;;;1.47;;
13090;SDS011;6611;52.604;13.438;2022-07-06T05:07:36;1.63;;;1.10;;
13090;SDS011;6611;52.604;13.438;2022-07-06T05:10:12;3.83;;;1.30;;
13090;SDS011;6611;52.604;13.438;2022-07-06T05:12:44;2.20;;;1.13;;
13090;SDS011;6611;52.604;13.438;2022-07-06T05:15:16;2.93;;;1.30;;
13090;SDS011;6611;52.604;13.438;2022-07-06T05:17:48;4.87;;;1.40;;
13090;SDS011;6611;52.604;13.438;2022-07-06T05:20:20;3.73;;;1.10;;
13090;SDS011;6611;52.604;13.438;2022-07-06T05:22:53;2.97;;;1.30;;
13090;SDS011;6611;52.604;13.438;2022-07-06T05:25:28;1.87;;;0.90;;
13090;SDS011;6611;52.604;13.438;2022-07-06T05:28:01;2.97;;;1.37;;
13090;SDS011;6611;52.604;13.438;2022-07-06T05:30:33;2.37;;;1.07;;
13090;SDS011;6611;52.604;13.438;2022-07-06T05:33:05;3.33;;;1.13;;
13090;SDS011;6611;52.604;13.438;2022-07-06T05:35:37;2.90;;;1.13;;
13090;SDS011;6611;52.604;13.438;2022-07-06T05:38:10;2.53;;;1.20;;
13090;SDS011;6611;52.604;13.438;2022-07-06T05:40:43;3.63;;;1.20;;
13090;SDS011;6611;52.604;13.438;2022-07-06T05:43:15;1.60;;;1.00;;
13090;SDS011;6611;52.604;13.438;2022-07-06T05:45:47;2.53;;;1.30;;
13090;SDS011;6611;52.604;13.438;2022-07-06T05:48:19;1.53;;;1.10;;
13090;SDS011;6611;52.604;13.438;2022-07-06T05:51:05;2.03;;;1.00;;
13090;SDS011;6611;52.604;13.438;2022-07-06T05:53:38;4.17;;;1.23;;
13090;SDS011;6611;52.604;13.438;2022-07-06T05:56:11;2.33;;;1.00;;
13090;SDS011;6611;52.604;13.438;2022-07-06T05:58:43;1.73;;;0.80;;
13090;SDS011;6611;52.604;13.438;2022-07-06T06:01:15;2.33;;;1.20;;
13090;SDS011;6611;52.604;13.438;2022-07-06T06:03:47;3.27;;;1.10;;
13090;SDS011;6611;52.604;13.438;2022-07-06T06:06:20;2.40;;;1.10;;
13090;SDS011;6611;52.604;13.438;2022-07-06T06:08:52;3.80;;;1.40;;
13090;SDS011;6611;52.604;13.438;2022-07-06T06:11:26;4.10;;;1.20;;
13090;SDS011;6611;52.604;13.438;2022-07-06T06:13:58;1.77;;;1.20;;
13090;SDS011;6611;52.604;13.438;2022-07-06T06:16:30;2.90;;;1.03;;
13090;SDS011;6611;52.604;13.438;2022-07-06T06:19:02;3.03;;;1.37;;
13090;SDS011;6611;52.604;13.438;2022-07-06T06:21:34;2.87;;;0.97;;
13090;SDS011;6611;52.604;13.438;2022-07-06T06:24:07;4.83;;;1.33;;
13090;SDS011;6611;52.604;13.438;2022-07-06T06:26:41;4.63;;;1.10;;
13090;SDS011;6611;52.604;13.438;2022-07-06T06:29:13;3.63;;;1.20;;
13090;SDS011;6611;52.604;13.438;2022-07-06T06:31:45;2.30;;;1.17;;
13090;SDS011;6611;52.604;13.438;2022-07-06T06:34:17;2.87;;;1.30;;
13090;SDS011;6611;52.604;13.438;2022-07-06T06:36:49;3.50;;;1.40;;
13090;SDS011;6611;52.604;13.438;2022-07-06T06:39:21;3.93;;;1.43;;
13090;SDS011;6611;52.604;13.438;2022-07-06T06:41:55;3.70;;;1.30;;
13090;SDS011;6611;52.604;13.438;2022-07-06T06:44:28;3.70;;;1.20;;
13090;SDS011;6611;52.604;13.438;2022-07-06T06:47:00;3.50;;;1.13;;
13090;SDS011;6611;52.604;13.438;2022-07-06T06:49:32;2.10;;;1.27;;
13090;SDS011;6611;52.604;13.438;2022-07-06T06:52:04;4.43;;;1.70;;
13090;SDS011;6611;52.604;13.438;2022-07-06T06:54:37;3.03;;;1.20;;
13090;SDS011;6611;52.604;13.438;2022-07-06T06:57:10;3.83;;;1.20;;
13090;SDS011;6611;52.604;13.438;2022-07-06T06:59:42;3.07;;;1.17;;
13090;SDS011;6611;52.604;13.438;2022-07-06T07:02:14;5.07;;;1.17;;
13090;SDS011;6611;52.604;13.438;2022-07-06T07:04:46;2.47;;;0.93;;
13090;SDS011;6611;52.604;13.438;2022-07-06T07:07:18;2.77;;;1.10;;
13090;SDS011;6611;52.604;13.438;2022-07-06T07:09:50;3.13;;;1.50;;
13090;SDS011;6611;52.604;13.438;2022-07-06T07:12:24;3.97;;;1.43;;
13090;SDS011;6611;52.604;13.438;2022-07-06T07:14:56;1.17;;;0.97;;
13090;SDS011;6611;52.604;13.438;2022-07-06T07:17:28;2.27;;;0.90;;
13090;SDS011;6611;52.604;13.438;2022-07-06T07:20:01;1.37;;;0.63;;
13090;SDS011;6611;52.604;13.438;2022-07-06T07:22:33;2.83;;;1.00;;
13090;SDS011;6611;52.604;13.438;2022-07-06T07:25:05;1.23;;;0.70;;
13090;SDS011;6611;52.604;13.438;2022-07-06T07:27:39;1.37;;;0.83;;
13090;SDS011;6611;52.604;13.438;2022-07-06T07:30:11;0.93;;;0.63;;
13090;SDS011;6611;52.604;13.438;2022-07-06T07:32:43;3.23;;;0.73;;
13090;SDS011;6611;52.604;13.438;2022-07-06T07:35:15;1.20;;;0.67;;
13090;SDS011;6611;52.604;13.438;2022-07-06T07:37:48;1.90;;;0.90;;
13090;SDS011;6611;52.604;13.438;2022-07-06T07:40:20;1.10;;;0.70;;
13090;SDS011;6611;52.604;13.438;2022-07-06T07:42:53;1.87;;;1.00;;
13090;SDS011;6611;52.604;13.438;2022-07-06T07:45:26;4.37;;;0.90;;
13090;SDS011;6611;52.604;13.438;2022-07-06T07:47:58;1.70;;;0.90;;
13090;SDS011;6611;52.604;13.438;2022-07-06T07:50:30;2.33;;;1.00;;
13090;SDS011;6611;52.604;13.438;2022-07-06T07:53:02;1.10;;;0.80;;
13090;SDS011;6611;52.604;13.438;2022-07-06T07:55:34;1.93;;;0.80;;
13090;SDS011;6611;52.604;13.438;2022-07-06T07:58:08;2.57;;;0.93;;
13090;SDS011;6611;52.604;13.438;2022-07-06T08:00:39;3.00;;;1.10;;
13090;SDS011;6611;52.604;13.438;2022-07-06T08:03:12;3.20;;;0.77;;
13090;SDS011;6611;52.604;13.438;2022-07-06T08:05:44;4.40;;;0.80;;
13090;SDS011;6611;52.604;13.438;2022-07-06T08:08:17;1.20;;;0.70;;
13090;SDS011;6611;52.604;13.438;2022-07-06T08:10:49;2.80;;;1.10;;
13090;SDS011;6611;52.604;13.438;2022-07-06T08:13:23;3.07;;;1.00;;
13090;SDS011;6611;52.604;13.438;2022-07-06T08:15:55;2.20;;;0.87;;
13090;SDS011;6611;52.604;13.438;2022-07-06T08:18:27;2.70;;;1.10;;
13090;SDS011;6611;52.604;13.438;2022-07-06T08:20:59;2.13;;;1.00;;
13090;SDS011;6611;52.604;13.438;2022-07-06T08:23:32;2.57;;;1.00;;
13090;SDS011;6611;52.604;13.438;2022-07-06T08:26:05;2.27;;;0.87;;
13090;SDS011;6611;52.604;13.438;2022-07-06T08:28:38;1.57;;;0.80;;
13090;SDS011;6611;52.604;13.438;2022-07-06T08:31:11;2.00;;;1.03;;
13090;SDS011;6611;52.604;13.438;2022-07-06T08:33:43;1.97;;;0.87;;
13090;SDS011;6611;52.604;13.438;2022-07-06T08:36:15;1.73;;;0.80;;
13090;SDS011;6611;52.604;13.438;2022-07-06T08:38:47;1.40;;;0.87;;
13090;SDS011;6611;52.604;13.438;2022-07-06T08:41:21;1.87;;;0.70;;
13090;SDS011;6611;52.604;13.438;2022-07-06T08:43:55;2.10;;;0.93;;
13090;SDS011;6611;52.604;13.438;2022-07-06T08:46:27;1.83;;;1.03;;
13090;SDS011;6611;52.604;13.438;2022-07-06T08:49:00;1.00;;;0.90;;
13090;SDS011;6611;52.604;13.438;2022-07-06T08:51:32;2.73;;;0.93;;
13090;SDS011;6611;52.604;13.438;2022-07-06T08:54:06;5.43;;;0.97;;
13090;SDS011;6611;52.604;13.438;2022-07-06T08:56:39;2.87;;;0.80;;
13090;SDS011;6611;52.604;13.438;2022-07-06T08:59:13;1.53;;;0.60;;
13090;SDS011;6611;52.604;13.438;2022-07-06T09:01:45;2.90;;;0.80;;
13090;SDS011;6611;52.604;13.438;2022-07-06T09:04:18;2.10;;;0.57;;
13090;SDS011;6611;52.604;13.438;2022-07-06T09:06:53;1.23;;;0.53;;
13090;SDS011;6611;52.604;13.438;2022-07-06T09:09:26;1.13;;;0.60;;
13090;SDS011;6611;52.604;13.438;2022-07-06T09:12:01;1.53;;;0.80;;
13090;SDS011;6611;52.604;13.438;2022-07-06T09:14:35;1.23;;;0.60;;
13090;SDS011;6611;52.604;13.438;2022-07-06T09:17:07;3.27;;;0.70;;
13090;SDS011;6611;52.604;13.438;2022-07-06T09:19:41;1.77;;;0.80;;
13090;SDS011;6611;52.604;13.438;2022-07-06T09:22:26;1.93;;;0.70;;
13090;SDS011;6611;52.604;13.438;2022-07-06T09:25:03;2.60;;;0.80;;
13090;SDS011;6611;52.604;13.438;2022-07-06T09:27:39;1.77;;;0.57;;
13090;SDS011;6611;52.604;13.438;2022-07-06T09:30:13;1.70;;;0.53;;
13090;SDS011;6611;52.604;13.438;2022-07-06T09:32:46;3.90;;;0.80;;
13090;SDS011;6611;52.604;13.438;2022-07-06T09:35:20;2.40;;;0.80;;
13090;SDS011;6611;52.604;13.438;2022-07-06T09:37:59;2.73;;;0.80;;
13090;SDS011;6611;52.604;13.438;2022-07-06T09:40:32;1.40;;;0.70;;
13090;SDS011;6611;52.604;13.438;2022-07-06T09:43:08;3.83;;;0.90;;
13090;SDS011;6611;52.604;13.438;2022-07-06T09:45:43;3.67;;;0.70;;
13090;SDS011;6611;52.604;13.438;2022-07-06T09:48:16;2.03;;;0.63;;
13090;SDS011;6611;52.604;13.438;2022-07-06T09:50:51;1.27;;;0.60;;
13090;SDS011;6611;52.604;13.438;2022-07-06T09:53:24;1.10;;;0.70;;
13090;SDS011;6611;52.604;13.438;2022-07-06T09:55:57;1.27;;;0.60;;
13090;SDS011;6611;52.604;13.438;2022-07-06T09:58:29;2.17;;;1.00;;
13090;SDS011;6611;52.604;13.438;2022-07-06T10:01:02;1.23;;;0.63;;
13090;SDS011;6611;52.604;13.438;2022-07-06T10:03:35;4.93;;;0.90;;
13090;SDS011;6611;52.604;13.438;2022-07-06T10:06:07;4.10;;;0.80;;
13090;SDS011;6611;52.604;13.438;2022-07-06T10:08:39;2.20;;;0.70;;
13090;SDS011;6611;52.604;13.438;2022-07-06T10:11:11;2.17;;;0.70;;
13090;SDS011;6611;52.604;13.438;2022-07-06T10:13:44;3.53;;;0.50;;
13090;SDS011;6611;52.604;13.438;2022-07-06T10:16:19;6.37;;;0.80;;
13090;SDS011;6611;52.604;13.438;2022-07-06T10:18:52;2.63;;;0.90;;
13090;SDS011;6611;52.604;13.438;2022-07-06T10:21:24;0.90;;;0.70;;
13090;SDS011;6611;52.604;13.438;2022-07-06T10:23:57;1.17;;;0.80;;
13090;SDS011;6611;52.604;13.438;2022-07-06T10:26:30;1.83;;;0.60;;
13090;SDS011;6611;52.604;13.438;2022-07-06T10:29:03;4.60;;;0.93;;
13090;SDS011;6611;52.604;13.438;2022-07-06T10:31:38;1.70;;;0.80;;
13090;SDS011;6611;52.604;13.438;2022-07-06T10:34:12;4.17;;;1.10;;
13090;SDS011;6611;52.604;13.438;2022-07-06T10:36:48;4.27;;;0.90;;
13090;SDS011;6611;52.604;13.438;2022-07-06T10:39:34;2.27;;;0.70;;
13090;SDS011;6611;52.604;13.438;2022-07-06T10:42:40;1.67;;;0.77;;
13090;SDS011;6611;52.604;13.438;2022-07-06T10:45:13;3.07;;;0.70;;
13090;SDS011;6611;52.604;13.438;2022-07-06T10:47:47;2.93;;;0.70;;
13090;SDS011;6611;52.604;13.438;2022-07-06T10:50:21;1.97;;;0.60;;
13090;SDS011;6611;52.604;13.438;2022-07-06T10:52:57;1.87;;;0.60;;
13090;SDS011;6611;52.604;13.438;2022-07-06T10:55:30;1.00;;;0.50;;
13090;SDS011;6611;52.604;13.438;2022-07-06T10:58:04;1.80;;;0.70;;
13090;SDS011;6611;52.604;13.438;2022-07-06T11:00:49;0.83;;;0.40;;
13090;SDS011;6611;52.604;13.438;2022-07-06T11:03:33;1.83;;;0.50;;
13090;SDS011;6611;52.604;13.438;2022-07-06T11:06:07;2.70;;;0.77;;
13090;SDS011;6611;52.604;13.438;2022-07-06T11:08:43;2.40;;;0.57;;
13090;SDS011;6611;52.604;13.438;2022-07-06T11:11:16;1.30;;;0.60;;
13090;SDS011;6611;52.604;13.438;2022-07-06T11:13:49;2.10;;;0.60;;
13090;SDS011;6611;52.604;13.438;2022-07-06T11:16:23;1.23;;;0.70;;
13090;SDS011;6611;52.604;13.438;2022-07-06T11:19:01;1.80;;;0.60;;
13090;SDS011;6611;52.604;13.438;2022-07-06T11:21:36;1.63;;;0.70;;
13090;SDS011;6611;52.604;13.438;2022-07-06T11:24:08;2.53;;;0.80;;
13090;SDS011;6611;52.604;13.438;2022-07-06T11:26:41;1.33;;;0.60;;
13090;SDS011;6611;52.604;13.438;2022-07-06T11:29:15;1.97;;;0.50;;
13090;SDS011;6611;52.604;13.438;2022-07-06T11:31:48;2.60;;;0.57;;
13090;SDS011;6611;52.604;13.438;2022-07-06T11:34:22;2.80;;;0.83;;
13090;SDS011;6611;52.604;13.438;2022-07-06T11:36:55;1.37;;;0.53;;
13090;SDS011;6611;52.604;13.438;2022-07-06T11:39:28;4.83;;;0.80;;
13090;SDS011;6611;52.604;13.438;2022-07-06T11:42:00;2.33;;;0.60;;
13090;SDS011;6611;52.604;13.438;2022-07-06T11:44:34;2.63;;;0.80;;
13090;SDS011;6611;52.604;13.438;2022-07-06T11:47:08;2.77;;;0.70;;
13090;SDS011;6611;52.604;13.438;2022-07-06T11:49:41;0.77;;;0.60;;
13090;SDS011;6611;52.604;13.438;2022-07-06T11:52:16;1.23;;;0.60;;
13090;SDS011;6611;52.604;13.438;2022-07-06T11:54:48;1.70;;;0.80;;
13090;SDS011;6611;52.604;13.438;2022-07-06T11:57:19;1.77;;;0.63;;
13090;SDS011;6611;52.604;13.438;2022-07-06T11:59:53;1.57;;;0.50;;
13090;SDS011;6611;52.604;13.438;2022-07-06T12:02:26;0.73;;;0.40;;
13090;SDS011;6611;52.604;13.438;2022-07-06T12:05:00;0.97;;;0.50;;
13090;SDS011;6611;52.604;13.438;2022-07-06T12:07:32;1.63;;;0.90;;
13090;SDS011;6611;52.604;13.438;2022-07-06T12:10:04;2.80;;;0.70;;
13090;SDS011;6611;52.604;13.438;2022-07-06T12:12:37;1.93;;;0.67;;
13090;SDS011;6611;52.604;13.438;2022-07-06T12:15:09;3.07;;;0.90;;
13090;SDS011;6611;52.604;13.438;2022-07-06T12:17:46;1.10;;;0.50;;
13090;SDS011;6611;52.604;13.438;2022-07-06T12:20:19;2.07;;;0.70;;
13090;SDS011;6611;52.604;13.438;2022-07-06T12:23:00;1.60;;;0.70;;
13090;SDS011;6611;52.604;13.438;2022-07-06T12:25:32;2.07;;;0.70;;
13090;SDS011;6611;52.604;13.438;2022-07-06T12:28:04;0.53;;;0.33;;
13090;SDS011;6611;52.604;13.438;2022-07-06T12:30:39;1.57;;;0.73;;
13090;SDS011;6611;52.604;13.438;2022-07-06T12:33:17;1.40;;;0.50;;
13090;SDS011;6611;52.604;13.438;2022-07-06T12:35:50;2.33;;;0.60;;
13090;SDS011;6611;52.604;13.438;2022-07-06T12:38:23;2.10;;;0.60;;
13090;SDS011;6611;52.604;13.438;2022-07-06T12:40:55;1.20;;;0.47;;
13090;SDS011;6611;52.604;13.438;2022-07-06T12:43:37;2.30;;;0.50;;
13090;SDS011;6611;52.604;13.438;2022-07-06T12:49:13;1.30;;;0.60;;
13090;SDS011;6611;52.604;13.438;2022-07-06T12:54:40;1.83;;;0.70;;
13090;SDS011;6611;52.604;13.438;2022-07-06T12:57:14;0.87;;;0.40;;
13090;SDS011;6611;52.604;13.438;2022-07-06T12:59:47;1.77;;;0.40;;
13090;SDS011;6611;52.604;13.438;2022-07-06T13:02:20;2.93;;;0.67;;
13090;SDS011;6611;52.604;13.438;2022-07-06T13:04:54;0.87;;;0.60;;
13090;SDS011;6611;52.604;13.438;2022-07-06T13:07:28;2.30;;;0.40;;
13090;SDS011;6611;52.604;13.438;2022-07-06T13:10:03;1.83;;;0.50;;
13090;SDS011;6611;52.604;13.438;2022-07-06T13:12:36;0.90;;;0.50;;
13090;SDS011;6611;52.604;13.438;2022-07-06T13:15:09;3.97;;;0.60;;
13090;SDS011;6611;52.604;13.438;2022-07-06T13:17:41;0.80;;;0.40;;
13090;SDS011;6611;52.604;13.438;2022-07-06T13:20:14;3.33;;;0.70;;
13090;SDS011;6611;52.604;13.438;2022-07-06T13:22:47;2.80;;;0.63;;
13090;SDS011;6611;52.604;13.438;2022-07-06T13:25:21;2.00;;;0.50;;
13090;SDS011;6611;52.604;13.438;2022-07-06T13:27:53;1.17;;;0.50;;
13090;SDS011;6611;52.604;13.438;2022-07-06T13:30:25;1.67;;;0.50;;
13090;SDS011;6611;52.604;13.438;2022-07-06T13:32:57;2.37;;;0.53;;
13090;SDS011;6611;52.604;13.438;2022-07-06T13:35:29;2.70;;;0.53;;
13090;SDS011;6611;52.604;13.438;2022-07-06T13:38:01;3.47;;;0.70;;
13090;SDS011;6611;52.604;13.438;2022-07-06T13:40:34;2.47;;;0.57;;
13090;SDS011;6611;52.604;13.438;2022-07-06T13:43:06;2.70;;;0.50;;
13090;SDS011;6611;52.604;13.438;2022-07-06T13:45:38;1.20;;;0.50;;
13090;SDS011;6611;52.604;13.438;2022-07-06T13:48:10;1.47;;;0.43;;
13090;SDS011;6611;52.604;13.438;2022-07-06T13:50:43;1.23;;;0.50;;
13090;SDS011;6611;52.604;13.438;2022-07-06T13:53:15;1.33;;;0.50;;
13090;SDS011;6611;52.604;13.438;2022-07-06T13:55:48;0.93;;;0.50;;
13090;SDS011;6611;52.604;13.438;2022-07-06T13:58:20;1.47;;;0.43;;
13090;SDS011;6611;52.604;13.438;2022-07-06T14:00:53;2.20;;;0.50;;
13090;SDS011;6611;52.604;13.438;2022-07-06T14:03:25;1.67;;;0.67;;
13090;SDS011;6611;52.604;13.438;2022-07-06T14:06:00;2.47;;;0.60;;
13090;SDS011;6611;52.604;13.438;2022-07-06T14:08:33;5.33;;;0.40;;
13090;SDS011;6611;52.604;13.438;2022-07-06T14:11:07;0.73;;;0.40;;
13090;SDS011;6611;52.604;13.438;2022-07-06T14:13:39;1.30;;;0.30;;
13090;SDS011;6611;52.604;13.438;2022-07-06T14:16:11;0.90;;;0.50;;
13090;SDS011;6611;52.604;13.438;2022-07-06T14:18:43;0.60;;;0.30;;
13090;SDS011;6611;52.604;13.438;2022-07-06T14:21:15;2.23;;;0.40;;
13090;SDS011;6611;52.604;13.438;2022-07-06T14:23:48;2.20;;;0.60;;
13090;SDS011;6611;52.604;13.438;2022-07-06T14:26:21;0.87;;;0.70;;
13090;SDS011;6611;52.604;13.438;2022-07-06T14:28:53;0.77;;;0.30;;
13090;SDS011;6611;52.604;13.438;2022-07-06T14:31:25;1.37;;;0.63;;
13090;SDS011;6611;52.604;13.438;2022-07-06T14:33:57;0.90;;;0.50;;
13090;SDS011;6611;52.604;13.438;2022-07-06T14:36:29;4.00;;;0.40;;
13090;SDS011;6611;52.604;13.438;2022-07-06T14:39:03;1.90;;;0.50;;
13090;SDS011;6611;52.604;13.438;2022-07-06T14:41:36;1.30;;;0.70;;
13090;SDS011;6611;52.604;13.438;2022-07-06T14:44:09;1.07;;;0.40;;
13090;SDS011;6611;52.604;13.438;2022-07-06T14:46:41;1.80;;;0.60;;
13090;SDS011;6611;52.604;13.438;2022-07-06T14:49:13;2.57;;;0.50;;
13090;SDS011;6611;52.604;13.438;2022-07-06T14:51:45;1.03;;;0.40;;
13090;SDS011;6611;52.604;13.438;2022-07-06T14:54:18;1.17;;;0.47;;
13090;SDS011;6611;52.604;13.438;2022-07-06T14:56:51;0.90;;;0.50;;
13090;SDS011;6611;52.604;13.438;2022-07-06T14:59:23;1.27;;;0.57;;
13090;SDS011;6611;52.604;13.438;2022-07-06T15:01:55;1.10;;;0.40;;
13090;SDS011;6611;52.604;13.438;2022-07-06T15:04:27;2.00;;;0.77;;
13090;SDS011;6611;52.604;13.438;2022-07-06T15:06:59;0.80;;;0.40;;
13090;SDS011;6611;52.604;13.438;2022-07-06T15:09:32;1.43;;;0.50;;
13090;SDS011;6611;52.604;13.438;2022-07-06T15:12:07;1.20;;;0.70;;
13090;SDS011;6611;52.604;13.438;2022-07-06T15:14:39;2.53;;;0.60;;
13090;SDS011;6611;52.604;13.438;2022-07-06T15:17:11;2.83;;;0.70;;
13090;SDS011;6611;52.604;13.438;2022-07-06T15:19:43;1.33;;;0.57;;
13090;SDS011;6611;52.604;13.438;2022-07-06T15:22:15;1.40;;;0.50;;
13090;SDS011;6611;52.604;13.438;2022-07-06T15:24:47;1.47;;;0.70;;
13090;SDS011;6611;52.604;13.438;2022-07-06T15:27:21;2.37;;;0.53;;